sensor_id;sensor_type;location;lat;lon;timestamp;P1;durP1;ratioP1;P2;durP2;ratioP2
11582;SDS011;34299;50.820;4.548;2022-10-29T00:00:15;14.10;;;6.70;;
11582;SDS011;34299;50.820;4.548;2022-10-29T00:02:42;12.47;;;5.83;;
11582;SDS011;34299;50.820;4.548;2022-10-29T00:05:10;11.70;;;6.63;;
11582;SDS011;34299;50.820;4.548;2022-10-29T00:07:37;16.03;;;7.07;;
11582;SDS011;34299;50.820;4.548;2022-10-29T00:10:04;10.50;;;6.47;;
11582;SDS011;34299;50.820;4.548;2022-10-29T00:12:31;10.90;;;6.20;;
11582;SDS011;34299;50.820;4.548;2022-10-29T00:15:00;12.63;;;5.73;;
11582;SDS011;34299;50.820;4.548;2022-10-29T00:17:27;13.97;;;6.10;;
11582;SDS011;34299;50.820;4.548;2022-10-29T00:19:54;13.67;;;6.30;;
11582;SDS011;34299;50.820;4.548;2022-10-29T00:22:21;9.97;;;5.87;;
11582;SDS011;34299;50.820;4.548;2022-10-29T00:24:48;10.10;;;5.90;;
11582;SDS011;34299;50.820;4.548;2022-10-29T00:27:15;13.13;;;6.30;;
11582;SDS011;34299;50.820;4.548;2022-10-29T00:29:42;13.27;;;5.70;;
11582;SDS011;34299;50.820;4.548;2022-10-29T00:32:11;10.53;;;6.07;;
11582;SDS011;34299;50.820;4.548;2022-10-29T00:34:38;12.80;;;6.53;;
11582;SDS011;34299;50.820;4.548;2022-10-29T00:37:05;10.43;;;6.47;;
11582;SDS011;34299;50.820;4.548;2022-10-29T00:39:32;9.70;;;6.03;;
11582;SDS011;34299;50.820;4.548;2022-10-29T00:42:00;11.20;;;6.00;;
11582;SDS011;34299;50.820;4.548;2022-10-29T00:44:29;11.53;;;6.43;;
11582;SDS011;34299;50.820;4.548;2022-10-29T00:47:00;12.33;;;6.17;;
11582;SDS011;34299;50.820;4.548;2022-10-29T00:49:31;12.77;;;6.47;;
11582;SDS011;34299;50.820;4.548;2022-10-29T00:52:00;11.17;;;6.53;;
11582;SDS011;34299;50.820;4.548;2022-10-29T00:54:28;10.13;;;6.40;;
11582;SDS011;34299;50.820;4.548;2022-10-29T00:56:57;13.37;;;6.67;;
11582;SDS011;34299;50.820;4.548;2022-10-29T00:59:25;11.93;;;5.73;;
11582;SDS011;34299;50.820;4.548;2022-10-29T01:01:52;8.70;;;5.93;;
11582;SDS011;34299;50.820;4.548;2022-10-29T01:04:20;10.33;;;5.93;;
11582;SDS011;34299;50.820;4.548;2022-10-29T01:06:49;13.40;;;5.87;;
11582;SDS011;34299;50.820;4.548;2022-10-29T01:09:20;10.17;;;6.47;;
11582;SDS011;34299;50.820;4.548;2022-10-29T01:11:49;12.53;;;6.70;;
11582;SDS011;34299;50.820;4.548;2022-10-29T01:14:22;13.00;;;6.33;;
11582;SDS011;34299;50.820;4.548;2022-10-29T01:16:54;12.40;;;5.83;;
11582;SDS011;34299;50.820;4.548;2022-10-29T01:19:29;10.37;;;5.67;;
11582;SDS011;34299;50.820;4.548;2022-10-29T01:22:03;10.93;;;6.53;;
11582;SDS011;34299;50.820;4.548;2022-10-29T01:30:12;11.83;;;5.77;;
11582;SDS011;34299;50.820;4.548;2022-10-29T01:32:45;15.77;;;5.87;;
11582;SDS011;34299;50.820;4.548;2022-10-29T01:35:16;14.57;;;6.07;;
11582;SDS011;34299;50.820;4.548;2022-10-29T01:37:47;11.23;;;5.47;;
11582;SDS011;34299;50.820;4.548;2022-10-29T01:40:20;12.40;;;5.40;;
11582;SDS011;34299;50.820;4.548;2022-10-29T01:42:50;11.67;;;5.20;;
11582;SDS011;34299;50.820;4.548;2022-10-29T01:45:20;13.03;;;5.90;;
11582;SDS011;34299;50.820;4.548;2022-10-29T01:47:52;9.40;;;5.87;;
11582;SDS011;34299;50.820;4.548;2022-10-29T01:50:21;10.50;;;5.73;;
11582;SDS011;34299;50.820;4.548;2022-10-29T01:52:49;12.73;;;5.97;;
11582;SDS011;34299;50.820;4.548;2022-10-29T01:55:17;13.03;;;6.30;;
11582;SDS011;34299;50.820;4.548;2022-10-29T01:57:44;11.07;;;6.33;;
11582;SDS011;34299;50.820;4.548;2022-10-29T02:00:12;14.37;;;6.53;;
11582;SDS011;34299;50.820;4.548;2022-10-29T02:02:56;7.77;;;5.73;;
11582;SDS011;34299;50.820;4.548;2022-10-29T02:05:27;10.93;;;6.20;;
11582;SDS011;34299;50.820;4.548;2022-10-29T02:07:59;12.70;;;6.67;;
11582;SDS011;34299;50.820;4.548;2022-10-29T02:10:30;10.17;;;5.83;;
11582;SDS011;34299;50.820;4.548;2022-10-29T02:12:59;9.43;;;5.13;;
11582;SDS011;34299;50.820;4.548;2022-10-29T02:15:28;11.97;;;6.40;;
11582;SDS011;34299;50.820;4.548;2022-10-29T02:17:58;11.07;;;6.10;;
11582;SDS011;34299;50.820;4.548;2022-10-29T02:20:25;11.50;;;6.63;;
11582;SDS011;34299;50.820;4.548;2022-10-29T02:22:53;9.80;;;5.80;;
11582;SDS011;34299;50.820;4.548;2022-10-29T02:25:20;9.80;;;6.00;;
11582;SDS011;34299;50.820;4.548;2022-10-29T02:27:47;9.50;;;5.10;;
11582;SDS011;34299;50.820;4.548;2022-10-29T02:30:14;14.17;;;6.67;;
11582;SDS011;34299;50.820;4.548;2022-10-29T02:32:41;14.37;;;5.97;;
11582;SDS011;34299;50.820;4.548;2022-10-29T02:35:10;8.73;;;5.40;;
11582;SDS011;34299;50.820;4.548;2022-10-29T02:37:37;11.50;;;6.47;;
11582;SDS011;34299;50.820;4.548;2022-10-29T02:40:04;9.33;;;5.80;;
11582;SDS011;34299;50.820;4.548;2022-10-29T02:42:32;12.33;;;6.07;;
11582;SDS011;34299;50.820;4.548;2022-10-29T02:44:59;11.73;;;5.90;;
11582;SDS011;34299;50.820;4.548;2022-10-29T02:47:26;10.57;;;5.97;;
11582;SDS011;34299;50.820;4.548;2022-10-29T02:49:53;8.43;;;5.13;;
11582;SDS011;34299;50.820;4.548;2022-10-29T02:52:22;10.30;;;5.57;;
11582;SDS011;34299;50.820;4.548;2022-10-29T02:54:49;11.43;;;6.17;;
11582;SDS011;34299;50.820;4.548;2022-10-29T02:57:16;11.20;;;6.17;;
11582;SDS011;34299;50.820;4.548;2022-10-29T02:59:43;10.20;;;5.37;;
11582;SDS011;34299;50.820;4.548;2022-10-29T03:02:10;9.53;;;5.13;;
11582;SDS011;34299;50.820;4.548;2022-10-29T03:04:37;11.03;;;5.53;;
11582;SDS011;34299;50.820;4.548;2022-10-29T03:07:05;10.23;;;6.17;;
11582;SDS011;34299;50.820;4.548;2022-10-29T03:09:34;13.40;;;5.47;;
11582;SDS011;34299;50.820;4.548;2022-10-29T03:12:01;9.17;;;5.03;;
11582;SDS011;34299;50.820;4.548;2022-10-29T03:14:28;11.07;;;5.33;;
11582;SDS011;34299;50.820;4.548;2022-10-29T03:16:55;11.57;;;6.30;;
11582;SDS011;34299;50.820;4.548;2022-10-29T03:19:22;13.93;;;6.50;;
11582;SDS011;34299;50.820;4.548;2022-10-29T03:21:49;11.30;;;6.20;;
11582;SDS011;34299;50.820;4.548;2022-10-29T03:24:16;9.53;;;5.73;;
11582;SDS011;34299;50.820;4.548;2022-10-29T03:26:45;11.10;;;6.00;;
11582;SDS011;34299;50.820;4.548;2022-10-29T03:29:12;12.40;;;6.27;;
11582;SDS011;34299;50.820;4.548;2022-10-29T03:31:39;15.37;;;6.60;;
11582;SDS011;34299;50.820;4.548;2022-10-29T03:34:06;12.27;;;6.10;;
11582;SDS011;34299;50.820;4.548;2022-10-29T03:36:33;14.37;;;5.97;;
11582;SDS011;34299;50.820;4.548;2022-10-29T03:39:00;13.90;;;6.23;;
11582;SDS011;34299;50.820;4.548;2022-10-29T03:41:27;11.60;;;8.37;;
11582;SDS011;34299;50.820;4.548;2022-10-29T03:43:56;13.50;;;6.37;;
11582;SDS011;34299;50.820;4.548;2022-10-29T03:46:23;11.00;;;5.80;;
11582;SDS011;34299;50.820;4.548;2022-10-29T03:48:50;13.40;;;6.40;;
11582;SDS011;34299;50.820;4.548;2022-10-29T03:51:17;12.50;;;6.23;;
11582;SDS011;34299;50.820;4.548;2022-10-29T03:53:44;13.00;;;6.33;;
11582;SDS011;34299;50.820;4.548;2022-10-29T03:56:11;19.53;;;7.33;;
11582;SDS011;34299;50.820;4.548;2022-10-29T03:58:39;14.77;;;6.87;;
11582;SDS011;34299;50.820;4.548;2022-10-29T04:01:08;10.43;;;6.07;;
11582;SDS011;34299;50.820;4.548;2022-10-29T04:03:36;9.00;;;6.23;;
11582;SDS011;34299;50.820;4.548;2022-10-29T04:06:07;10.43;;;6.47;;
11582;SDS011;34299;50.820;4.548;2022-10-29T04:08:35;15.00;;;7.40;;
11582;SDS011;34299;50.820;4.548;2022-10-29T04:11:02;12.97;;;7.47;;
11582;SDS011;34299;50.820;4.548;2022-10-29T04:13:32;12.80;;;6.23;;
11582;SDS011;34299;50.820;4.548;2022-10-29T04:15:59;9.27;;;6.20;;
11582;SDS011;34299;50.820;4.548;2022-10-29T04:18:28;11.40;;;6.23;;
11582;SDS011;34299;50.820;4.548;2022-10-29T04:20:57;13.80;;;6.47;;
11582;SDS011;34299;50.820;4.548;2022-10-29T04:23:26;14.77;;;6.33;;
11582;SDS011;34299;50.820;4.548;2022-10-29T04:25:53;8.93;;;5.90;;
11582;SDS011;34299;50.820;4.548;2022-10-29T04:28:21;11.93;;;6.73;;
11582;SDS011;34299;50.820;4.548;2022-10-29T04:30:48;9.13;;;5.40;;
11582;SDS011;34299;50.820;4.548;2022-10-29T04:33:15;14.73;;;6.83;;
11582;SDS011;34299;50.820;4.548;2022-10-29T04:35:49;12.30;;;6.43;;
11582;SDS011;34299;50.820;4.548;2022-10-29T04:38:17;13.93;;;5.67;;
11582;SDS011;34299;50.820;4.548;2022-10-29T04:40:44;13.50;;;5.93;;
11582;SDS011;34299;50.820;4.548;2022-10-29T04:43:11;9.90;;;6.87;;
11582;SDS011;34299;50.820;4.548;2022-10-29T04:45:38;13.13;;;6.80;;
11582;SDS011;34299;50.820;4.548;2022-10-29T04:48:05;13.00;;;5.63;;
11582;SDS011;34299;50.820;4.548;2022-10-29T04:50:33;10.47;;;6.60;;
11582;SDS011;34299;50.820;4.548;2022-10-29T04:53:04;13.33;;;6.10;;
11582;SDS011;34299;50.820;4.548;2022-10-29T04:55:34;9.03;;;5.40;;
11582;SDS011;34299;50.820;4.548;2022-10-29T04:58:01;12.17;;;5.33;;
11582;SDS011;34299;50.820;4.548;2022-10-29T05:00:28;12.13;;;5.77;;
11582;SDS011;34299;50.820;4.548;2022-10-29T05:02:55;11.60;;;5.53;;
11582;SDS011;34299;50.820;4.548;2022-10-29T05:05:22;10.73;;;5.33;;
11582;SDS011;34299;50.820;4.548;2022-10-29T05:07:54;12.50;;;5.77;;
11582;SDS011;34299;50.820;4.548;2022-10-29T05:10:23;12.77;;;5.67;;
11582;SDS011;34299;50.820;4.548;2022-10-29T05:12:54;8.83;;;4.97;;
11582;SDS011;34299;50.820;4.548;2022-10-29T05:15:21;15.17;;;6.80;;
11582;SDS011;34299;50.820;4.548;2022-10-29T05:17:48;11.20;;;5.77;;
11582;SDS011;34299;50.820;4.548;2022-10-29T05:20:15;13.23;;;5.33;;
11582;SDS011;34299;50.820;4.548;2022-10-29T05:22:43;7.77;;;4.93;;
11582;SDS011;34299;50.820;4.548;2022-10-29T05:25:10;9.47;;;5.90;;
11582;SDS011;34299;50.820;4.548;2022-10-29T05:27:38;9.37;;;5.50;;
11582;SDS011;34299;50.820;4.548;2022-10-29T05:30:09;10.37;;;5.33;;
11582;SDS011;34299;50.820;4.548;2022-10-29T05:32:36;11.97;;;5.70;;
11582;SDS011;34299;50.820;4.548;2022-10-29T05:35:03;7.70;;;5.13;;
11582;SDS011;34299;50.820;4.548;2022-10-29T05:37:31;12.13;;;5.60;;
11582;SDS011;34299;50.820;4.548;2022-10-29T05:39:58;9.77;;;5.53;;
11582;SDS011;34299;50.820;4.548;2022-10-29T05:42:25;11.63;;;5.60;;
11582;SDS011;34299;50.820;4.548;2022-10-29T05:44:53;8.83;;;5.37;;
11582;SDS011;34299;50.820;4.548;2022-10-29T05:47:20;10.13;;;5.10;;
11582;SDS011;34299;50.820;4.548;2022-10-29T05:49:48;10.37;;;6.00;;
11582;SDS011;34299;50.820;4.548;2022-10-29T05:52:15;10.40;;;5.53;;
11582;SDS011;34299;50.820;4.548;2022-10-29T05:54:42;12.83;;;5.87;;
11582;SDS011;34299;50.820;4.548;2022-10-29T05:57:09;7.63;;;4.73;;
11582;SDS011;34299;50.820;4.548;2022-10-29T05:59:36;7.20;;;4.90;;
11582;SDS011;34299;50.820;4.548;2022-10-29T06:02:05;11.63;;;6.30;;
11582;SDS011;34299;50.820;4.548;2022-10-29T06:04:32;12.50;;;5.20;;
11582;SDS011;34299;50.820;4.548;2022-10-29T06:07:00;13.20;;;5.27;;
11582;SDS011;34299;50.820;4.548;2022-10-29T06:09:27;10.80;;;5.40;;
11582;SDS011;34299;50.820;4.548;2022-10-29T06:11:54;14.00;;;6.43;;
11582;SDS011;34299;50.820;4.548;2022-10-29T06:14:21;12.37;;;5.30;;
11582;SDS011;34299;50.820;4.548;2022-10-29T06:16:48;10.87;;;4.83;;
11582;SDS011;34299;50.820;4.548;2022-10-29T06:19:17;11.73;;;5.20;;
11582;SDS011;34299;50.820;4.548;2022-10-29T06:21:44;12.03;;;5.10;;
11582;SDS011;34299;50.820;4.548;2022-10-29T06:24:11;9.90;;;4.83;;
11582;SDS011;34299;50.820;4.548;2022-10-29T06:26:39;16.43;;;5.63;;
11582;SDS011;34299;50.820;4.548;2022-10-29T06:29:06;15.43;;;5.40;;
11582;SDS011;34299;50.820;4.548;2022-10-29T06:31:34;11.80;;;6.23;;
11582;SDS011;34299;50.820;4.548;2022-10-29T06:34:01;7.87;;;4.33;;
11582;SDS011;34299;50.820;4.548;2022-10-29T06:36:29;11.33;;;5.40;;
11582;SDS011;34299;50.820;4.548;2022-10-29T06:38:56;13.27;;;6.13;;
11582;SDS011;34299;50.820;4.548;2022-10-29T06:41:23;8.67;;;4.90;;
11582;SDS011;34299;50.820;4.548;2022-10-29T06:43:51;9.73;;;5.60;;
11582;SDS011;34299;50.820;4.548;2022-10-29T06:46:18;7.87;;;4.47;;
11582;SDS011;34299;50.820;4.548;2022-10-29T06:48:45;13.87;;;5.43;;
11582;SDS011;34299;50.820;4.548;2022-10-29T06:51:13;9.27;;;5.43;;
11582;SDS011;34299;50.820;4.548;2022-10-29T06:53:41;10.47;;;5.03;;
11582;SDS011;34299;50.820;4.548;2022-10-29T06:56:08;9.97;;;5.53;;
11582;SDS011;34299;50.820;4.548;2022-10-29T06:58:35;11.93;;;5.40;;
11582;SDS011;34299;50.820;4.548;2022-10-29T07:01:03;12.43;;;4.60;;
11582;SDS011;34299;50.820;4.548;2022-10-29T07:03:30;9.90;;;5.33;;
11582;SDS011;34299;50.820;4.548;2022-10-29T07:05:57;6.83;;;4.73;;
11582;SDS011;34299;50.820;4.548;2022-10-29T07:08:25;10.57;;;5.33;;
11582;SDS011;34299;50.820;4.548;2022-10-29T07:10:54;12.50;;;5.53;;
11582;SDS011;34299;50.820;4.548;2022-10-29T07:13:21;13.47;;;5.60;;
11582;SDS011;34299;50.820;4.548;2022-10-29T07:15:48;10.23;;;5.50;;
11582;SDS011;34299;50.820;4.548;2022-10-29T07:18:15;9.53;;;4.90;;
11582;SDS011;34299;50.820;4.548;2022-10-29T07:20:43;11.40;;;5.47;;
11582;SDS011;34299;50.820;4.548;2022-10-29T07:23:11;9.40;;;5.00;;
11582;SDS011;34299;50.820;4.548;2022-10-29T07:25:38;11.23;;;5.37;;
11582;SDS011;34299;50.820;4.548;2022-10-29T07:28:10;14.27;;;5.33;;
11582;SDS011;34299;50.820;4.548;2022-10-29T07:30:37;12.37;;;5.27;;
11582;SDS011;34299;50.820;4.548;2022-10-29T07:33:04;10.47;;;4.83;;
11582;SDS011;34299;50.820;4.548;2022-10-29T07:35:32;12.80;;;5.23;;
11582;SDS011;34299;50.820;4.548;2022-10-29T07:37:59;9.53;;;4.87;;
11582;SDS011;34299;50.820;4.548;2022-10-29T07:40:26;10.20;;;4.60;;
11582;SDS011;34299;50.820;4.548;2022-10-29T07:42:53;11.60;;;4.87;;
11582;SDS011;34299;50.820;4.548;2022-10-29T07:45:22;8.07;;;4.73;;
11582;SDS011;34299;50.820;4.548;2022-10-29T07:47:56;9.00;;;4.27;;
11582;SDS011;34299;50.820;4.548;2022-10-29T07:50:23;12.83;;;5.00;;
11582;SDS011;34299;50.820;4.548;2022-10-29T07:52:51;6.57;;;4.60;;
11582;SDS011;34299;50.820;4.548;2022-10-29T07:55:18;11.67;;;5.23;;
11582;SDS011;34299;50.820;4.548;2022-10-29T07:57:45;10.30;;;5.30;;
11582;SDS011;34299;50.820;4.548;2022-10-29T08:00:12;13.60;;;4.73;;
11582;SDS011;34299;50.820;4.548;2022-10-29T08:02:41;9.00;;;4.63;;
11582;SDS011;34299;50.820;4.548;2022-10-29T08:05:08;10.47;;;4.77;;
11582;SDS011;34299;50.820;4.548;2022-10-29T08:07:35;9.27;;;4.43;;
11582;SDS011;34299;50.820;4.548;2022-10-29T08:10:02;13.53;;;5.23;;
11582;SDS011;34299;50.820;4.548;2022-10-29T08:12:30;8.60;;;4.57;;
11582;SDS011;34299;50.820;4.548;2022-10-29T08:14:57;7.60;;;4.10;;
11582;SDS011;34299;50.820;4.548;2022-10-29T08:17:24;7.50;;;4.30;;
11582;SDS011;34299;50.820;4.548;2022-10-29T08:19:52;10.03;;;5.00;;
11582;SDS011;34299;50.820;4.548;2022-10-29T08:22:19;6.83;;;3.70;;
11582;SDS011;34299;50.820;4.548;2022-10-29T08:24:46;6.87;;;3.87;;
11582;SDS011;34299;50.820;4.548;2022-10-29T08:27:13;6.90;;;4.13;;
11582;SDS011;34299;50.820;4.548;2022-10-29T08:29:41;7.77;;;4.07;;
11582;SDS011;34299;50.820;4.548;2022-10-29T08:32:08;9.37;;;3.97;;
11582;SDS011;34299;50.820;4.548;2022-10-29T08:34:35;10.73;;;4.13;;
11582;SDS011;34299;50.820;4.548;2022-10-29T08:37:03;8.67;;;3.93;;
11582;SDS011;34299;50.820;4.548;2022-10-29T08:39:30;8.67;;;4.00;;
11582;SDS011;34299;50.820;4.548;2022-10-29T08:41:59;6.77;;;3.70;;
11582;SDS011;34299;50.820;4.548;2022-10-29T08:44:43;6.53;;;3.90;;
11582;SDS011;34299;50.820;4.548;2022-10-29T08:47:13;6.10;;;3.77;;
11582;SDS011;34299;50.820;4.548;2022-10-29T08:49:45;8.93;;;4.23;;
11582;SDS011;34299;50.820;4.548;2022-10-29T08:52:14;9.77;;;3.87;;
11582;SDS011;34299;50.820;4.548;2022-10-29T08:54:44;7.63;;;3.37;;
11582;SDS011;34299;50.820;4.548;2022-10-29T08:57:14;8.07;;;4.43;;
11582;SDS011;34299;50.820;4.548;2022-10-29T08:59:42;6.57;;;3.77;;
11582;SDS011;34299;50.820;4.548;2022-10-29T09:02:13;4.70;;;3.77;;
11582;SDS011;34299;50.820;4.548;2022-10-29T09:04:41;8.30;;;3.87;;
11582;SDS011;34299;50.820;4.548;2022-10-29T09:07:18;8.27;;;3.93;;
11582;SDS011;34299;50.820;4.548;2022-10-29T09:09:49;7.03;;;3.93;;
11582;SDS011;34299;50.820;4.548;2022-10-29T09:15:17;8.07;;;3.87;;
11582;SDS011;34299;50.820;4.548;2022-10-29T09:17:51;6.50;;;3.63;;
11582;SDS011;34299;50.820;4.548;2022-10-29T09:20:25;8.23;;;4.10;;
11582;SDS011;34299;50.820;4.548;2022-10-29T09:22:57;8.00;;;3.80;;
11582;SDS011;34299;50.820;4.548;2022-10-29T09:25:28;7.37;;;4.07;;
11582;SDS011;34299;50.820;4.548;2022-10-29T09:27:59;6.50;;;4.00;;
11582;SDS011;34299;50.820;4.548;2022-10-29T09:30:28;8.23;;;3.77;;
11582;SDS011;34299;50.820;4.548;2022-10-29T09:32:57;5.20;;;2.83;;
11582;SDS011;34299;50.820;4.548;2022-10-29T09:35:31;9.30;;;3.87;;
11582;SDS011;34299;50.820;4.548;2022-10-29T09:38:04;7.73;;;3.90;;
11582;SDS011;34299;50.820;4.548;2022-10-29T09:40:34;8.53;;;3.33;;
11582;SDS011;34299;50.820;4.548;2022-10-29T09:43:04;10.40;;;3.77;;
11582;SDS011;34299;50.820;4.548;2022-10-29T09:45:36;7.53;;;3.37;;
11582;SDS011;34299;50.820;4.548;2022-10-29T09:48:06;7.80;;;3.50;;
11582;SDS011;34299;50.820;4.548;2022-10-29T09:50:38;9.37;;;3.77;;
11582;SDS011;34299;50.820;4.548;2022-10-29T09:53:08;8.97;;;3.23;;
11582;SDS011;34299;50.820;4.548;2022-10-29T09:55:37;5.90;;;3.17;;
11582;SDS011;34299;50.820;4.548;2022-10-29T09:58:04;7.40;;;3.30;;
11582;SDS011;34299;50.820;4.548;2022-10-29T10:00:32;8.43;;;3.37;;
11582;SDS011;34299;50.820;4.548;2022-10-29T10:03:00;8.50;;;3.63;;
11582;SDS011;34299;50.820;4.548;2022-10-29T10:05:30;7.53;;;3.70;;
11582;SDS011;34299;50.820;4.548;2022-10-29T10:08:04;6.17;;;3.00;;
11582;SDS011;34299;50.820;4.548;2022-10-29T10:10:34;9.47;;;3.83;;
11582;SDS011;34299;50.820;4.548;2022-10-29T10:13:02;7.37;;;3.20;;
11582;SDS011;34299;50.820;4.548;2022-10-29T10:15:30;7.90;;;3.57;;
11582;SDS011;34299;50.820;4.548;2022-10-29T10:17:59;9.63;;;3.97;;
11582;SDS011;34299;50.820;4.548;2022-10-29T10:20:34;11.50;;;4.10;;
11582;SDS011;34299;50.820;4.548;2022-10-29T10:23:02;7.33;;;2.90;;
11582;SDS011;34299;50.820;4.548;2022-10-29T10:25:44;12.67;;;3.33;;
11582;SDS011;34299;50.820;4.548;2022-10-29T10:28:15;3.90;;;3.20;;
11582;SDS011;34299;50.820;4.548;2022-10-29T10:30:43;6.13;;;3.30;;
11582;SDS011;34299;50.820;4.548;2022-10-29T10:33:11;8.83;;;3.57;;
11582;SDS011;34299;50.820;4.548;2022-10-29T10:35:38;9.63;;;3.57;;
11582;SDS011;34299;50.820;4.548;2022-10-29T10:38:06;6.47;;;3.03;;
11582;SDS011;34299;50.820;4.548;2022-10-29T10:40:33;7.37;;;2.90;;
11582;SDS011;34299;50.820;4.548;2022-10-29T10:43:02;5.30;;;3.37;;
11582;SDS011;34299;50.820;4.548;2022-10-29T10:45:31;5.37;;;2.77;;
11582;SDS011;34299;50.820;4.548;2022-10-29T10:48:00;4.00;;;2.90;;
11582;SDS011;34299;50.820;4.548;2022-10-29T10:50:28;8.97;;;3.57;;
11582;SDS011;34299;50.820;4.548;2022-10-29T10:52:56;11.07;;;3.03;;
11582;SDS011;34299;50.820;4.548;2022-10-29T10:55:24;5.57;;;3.00;;
11582;SDS011;34299;50.820;4.548;2022-10-29T10:57:54;9.50;;;3.07;;
11582;SDS011;34299;50.820;4.548;2022-10-29T11:00:26;10.23;;;3.30;;
11582;SDS011;34299;50.820;4.548;2022-10-29T11:02:55;7.83;;;3.07;;
11582;SDS011;34299;50.820;4.548;2022-10-29T11:05:24;8.23;;;2.73;;
11582;SDS011;34299;50.820;4.548;2022-10-29T11:07:56;9.47;;;3.00;;
11582;SDS011;34299;50.820;4.548;2022-10-29T11:10:26;8.33;;;3.17;;
11582;SDS011;34299;50.820;4.548;2022-10-29T11:12:57;7.73;;;3.13;;
11582;SDS011;34299;50.820;4.548;2022-10-29T11:15:29;10.50;;;2.70;;
11582;SDS011;34299;50.820;4.548;2022-10-29T11:18:00;6.93;;;2.93;;
11582;SDS011;34299;50.820;4.548;2022-10-29T11:20:30;7.87;;;2.83;;
11582;SDS011;34299;50.820;4.548;2022-10-29T11:22:59;6.57;;;3.17;;
11582;SDS011;34299;50.820;4.548;2022-10-29T11:25:29;5.97;;;3.60;;
11582;SDS011;34299;50.820;4.548;2022-10-29T11:27:58;9.07;;;3.13;;
11582;SDS011;34299;50.820;4.548;2022-10-29T11:30:27;4.43;;;2.93;;
11582;SDS011;34299;50.820;4.548;2022-10-29T11:32:58;7.00;;;3.47;;
11582;SDS011;34299;50.820;4.548;2022-10-29T11:35:31;4.77;;;2.80;;
11582;SDS011;34299;50.820;4.548;2022-10-29T11:38:00;5.73;;;2.90;;
11582;SDS011;34299;50.820;4.548;2022-10-29T11:40:33;10.17;;;2.87;;
11582;SDS011;34299;50.820;4.548;2022-10-29T11:43:02;8.17;;;3.17;;
11582;SDS011;34299;50.820;4.548;2022-10-29T11:45:32;8.93;;;3.60;;
11582;SDS011;34299;50.820;4.548;2022-10-29T11:48:08;5.80;;;2.70;;
11582;SDS011;34299;50.820;4.548;2022-10-29T11:50:40;9.30;;;2.90;;
11582;SDS011;34299;50.820;4.548;2022-10-29T11:53:13;8.97;;;3.00;;
11582;SDS011;34299;50.820;4.548;2022-10-29T11:55:46;5.43;;;3.37;;
11582;SDS011;34299;50.820;4.548;2022-10-29T11:58:16;9.53;;;3.20;;
11582;SDS011;34299;50.820;4.548;2022-10-29T12:00:50;11.17;;;3.00;;
11582;SDS011;34299;50.820;4.548;2022-10-29T12:03:28;8.33;;;3.23;;
11582;SDS011;34299;50.820;4.548;2022-10-29T12:06:01;8.43;;;2.73;;
11582;SDS011;34299;50.820;4.548;2022-10-29T12:08:36;8.13;;;2.73;;
11582;SDS011;34299;50.820;4.548;2022-10-29T12:11:06;11.17;;;2.60;;
11582;SDS011;34299;50.820;4.548;2022-10-29T12:13:40;8.17;;;3.40;;
11582;SDS011;34299;50.820;4.548;2022-10-29T12:16:12;6.60;;;2.77;;
11582;SDS011;34299;50.820;4.548;2022-10-29T12:18:44;5.40;;;2.80;;
11582;SDS011;34299;50.820;4.548;2022-10-29T12:21:14;12.20;;;3.30;;
11582;SDS011;34299;50.820;4.548;2022-10-29T12:23:45;6.73;;;2.87;;
11582;SDS011;34299;50.820;4.548;2022-10-29T12:26:19;6.20;;;2.40;;
11582;SDS011;34299;50.820;4.548;2022-10-29T12:28:49;8.90;;;2.97;;
11582;SDS011;34299;50.820;4.548;2022-10-29T12:31:21;7.20;;;2.77;;
11582;SDS011;34299;50.820;4.548;2022-10-29T12:33:53;9.17;;;3.10;;
11582;SDS011;34299;50.820;4.548;2022-10-29T12:39:26;7.47;;;2.87;;
11582;SDS011;34299;50.820;4.548;2022-10-29T12:41:57;5.13;;;2.70;;
11582;SDS011;34299;50.820;4.548;2022-10-29T12:44:27;7.40;;;2.83;;
11582;SDS011;34299;50.820;4.548;2022-10-29T12:46:58;7.20;;;2.40;;
11582;SDS011;34299;50.820;4.548;2022-10-29T12:49:34;5.23;;;2.63;;
11582;SDS011;34299;50.820;4.548;2022-10-29T12:52:07;7.00;;;2.63;;
11582;SDS011;34299;50.820;4.548;2022-10-29T12:54:35;7.33;;;2.83;;
11582;SDS011;34299;50.820;4.548;2022-10-29T12:57:05;10.00;;;3.07;;
11582;SDS011;34299;50.820;4.548;2022-10-29T12:59:33;8.37;;;2.73;;
11582;SDS011;34299;50.820;4.548;2022-10-29T13:07:36;9.43;;;3.07;;
11582;SDS011;34299;50.820;4.548;2022-10-29T13:12:52;4.83;;;2.63;;
11582;SDS011;34299;50.820;4.548;2022-10-29T13:15:19;8.73;;;3.03;;
11582;SDS011;34299;50.820;4.548;2022-10-29T13:17:47;6.40;;;3.03;;
11582;SDS011;34299;50.820;4.548;2022-10-29T13:20:18;7.93;;;2.97;;
11582;SDS011;34299;50.820;4.548;2022-10-29T13:22:51;8.80;;;2.50;;
11582;SDS011;34299;50.820;4.548;2022-10-29T13:25:35;7.23;;;2.40;;
11582;SDS011;34299;50.820;4.548;2022-10-29T13:30:49;5.53;;;2.60;;
11582;SDS011;34299;50.820;4.548;2022-10-29T13:35:59;3.13;;;1.97;;
11582;SDS011;34299;50.820;4.548;2022-10-29T13:38:39;5.57;;;2.30;;
11582;SDS011;34299;50.820;4.548;2022-10-29T13:41:10;8.40;;;3.23;;
11582;SDS011;34299;50.820;4.548;2022-10-29T13:43:39;6.70;;;3.63;;
11582;SDS011;34299;50.820;4.548;2022-10-29T13:48:59;8.10;;;2.70;;
11582;SDS011;34299;50.820;4.548;2022-10-29T13:51:29;8.63;;;2.87;;
11582;SDS011;34299;50.820;4.548;2022-10-29T13:54:00;4.50;;;2.30;;
11582;SDS011;34299;50.820;4.548;2022-10-29T13:56:32;10.10;;;2.63;;
11582;SDS011;34299;50.820;4.548;2022-10-29T13:59:00;10.77;;;3.13;;
11582;SDS011;34299;50.820;4.548;2022-10-29T14:01:28;8.27;;;3.47;;
11582;SDS011;34299;50.820;4.548;2022-10-29T14:03:59;5.37;;;2.60;;
11582;SDS011;34299;50.820;4.548;2022-10-29T14:06:32;5.47;;;2.47;;
11582;SDS011;34299;50.820;4.548;2022-10-29T14:09:03;7.80;;;2.70;;
11582;SDS011;34299;50.820;4.548;2022-10-29T14:11:34;7.07;;;2.50;;
11582;SDS011;34299;50.820;4.548;2022-10-29T14:14:04;10.13;;;2.57;;
11582;SDS011;34299;50.820;4.548;2022-10-29T14:16:41;8.73;;;2.67;;
11582;SDS011;34299;50.820;4.548;2022-10-29T14:19:12;7.03;;;2.73;;
11582;SDS011;34299;50.820;4.548;2022-10-29T14:21:39;5.77;;;2.73;;
11582;SDS011;34299;50.820;4.548;2022-10-29T14:24:09;6.43;;;2.13;;
11582;SDS011;34299;50.820;4.548;2022-10-29T14:26:37;5.60;;;2.23;;
11582;SDS011;34299;50.820;4.548;2022-10-29T14:29:15;12.20;;;3.17;;
11582;SDS011;34299;50.820;4.548;2022-10-29T14:31:44;7.87;;;2.47;;
11582;SDS011;34299;50.820;4.548;2022-10-29T14:34:20;5.90;;;2.23;;
11582;SDS011;34299;50.820;4.548;2022-10-29T14:36:47;7.97;;;3.30;;
11582;SDS011;34299;50.820;4.548;2022-10-29T14:39:19;7.47;;;3.17;;
11582;SDS011;34299;50.820;4.548;2022-10-29T14:41:47;6.73;;;2.50;;
11582;SDS011;34299;50.820;4.548;2022-10-29T14:44:16;6.07;;;2.63;;
11582;SDS011;34299;50.820;4.548;2022-10-29T14:46:49;9.27;;;2.97;;
11582;SDS011;34299;50.820;4.548;2022-10-29T14:49:17;9.43;;;3.53;;
11582;SDS011;34299;50.820;4.548;2022-10-29T14:51:49;8.60;;;3.47;;
11582;SDS011;34299;50.820;4.548;2022-10-29T14:54:20;6.37;;;3.40;;
11582;SDS011;34299;50.820;4.548;2022-10-29T14:56:48;11.63;;;3.87;;
11582;SDS011;34299;50.820;4.548;2022-10-29T14:59:18;7.93;;;3.60;;
11582;SDS011;34299;50.820;4.548;2022-10-29T15:01:46;6.27;;;3.37;;
11582;SDS011;34299;50.820;4.548;2022-10-29T15:04:18;8.63;;;3.30;;
11582;SDS011;34299;50.820;4.548;2022-10-29T15:06:45;7.17;;;3.30;;
11582;SDS011;34299;50.820;4.548;2022-10-29T15:09:13;9.63;;;3.03;;
11582;SDS011;34299;50.820;4.548;2022-10-29T15:11:57;9.50;;;2.90;;
11582;SDS011;34299;50.820;4.548;2022-10-29T15:14:25;8.13;;;3.23;;
11582;SDS011;34299;50.820;4.548;2022-10-29T15:16:52;8.77;;;3.43;;
11582;SDS011;34299;50.820;4.548;2022-10-29T15:19:19;6.83;;;3.80;;